sensor_id;sensor_type;location;lat;lon;timestamp;temperature;humidity
41816;DHT22;27814;53.452;-6.180;2022-10-31T00:01:21;14.30;99.90
41816;DHT22;27814;53.452;-6.180;2022-10-31T00:03:50;14.40;99.90
41816;DHT22;27814;53.452;-6.180;2022-10-31T00:06:18;14.40;99.90
41816;DHT22;27814;53.452;-6.180;2022-10-31T00:08:47;14.40;99.90
41816;DHT22;27814;53.452;-6.180;2022-10-31T00:11:15;14.40;99.90
41816;DHT22;27814;53.452;-6.180;2022-10-31T00:13:45;14.40;99.90
41816;DHT22;27814;53.452;-6.180;2022-10-31T00:16:15;14.40;99.90
41816;DHT22;27814;53.452;-6.180;2022-10-31T00:18:43;14.50;99.90
41816;DHT22;27814;53.452;-6.180;2022-10-31T00:21:12;14.50;99.90
41816;DHT22;27814;53.452;-6.180;2022-10-31T00:23:40;14.60;99.90
41816;DHT22;27814;53.452;-6.180;2022-10-31T00:26:08;14.60;99.90
41816;DHT22;27814;53.452;-6.180;2022-10-31T00:28:37;14.70;99.90
41816;DHT22;27814;53.452;-6.180;2022-10-31T00:31:08;14.70;99.90
41816;DHT22;27814;53.452;-6.180;2022-10-31T00:33:38;14.70;99.90
41816;DHT22;27814;53.452;-6.180;2022-10-31T00:36:10;14.70;99.90
41816;DHT22;27814;53.452;-6.180;2022-10-31T00:38:39;14.70;99.90
41816;DHT22;27814;53.452;-6.180;2022-10-31T00:41:07;14.70;99.90
41816;DHT22;27814;53.452;-6.180;2022-10-31T00:43:36;14.70;99.90
41816;DHT22;27814;53.452;-6.180;2022-10-31T00:46:06;14.70;99.90
41816;DHT22;27814;53.452;-6.180;2022-10-31T00:48:34;14.60;99.90
41816;DHT22;27814;53.452;-6.180;2022-10-31T00:51:04;14.70;99.90
41816;DHT22;27814;53.452;-6.180;2022-10-31T00:53:32;14.60;99.90
41816;DHT22;27814;53.452;-6.180;2022-10-31T00:56:00;14.60;99.90
41816;DHT22;27814;53.452;-6.180;2022-10-31T00:58:29;14.60;99.90
41816;DHT22;27814;53.452;-6.180;2022-10-31T01:00:57;14.60;99.90
41816;DHT22;27814;53.452;-6.180;2022-10-31T01:03:29;14.60;99.90
41816;DHT22;27814;53.452;-6.180;2022-10-31T01:06:00;14.60;99.90
41816;DHT22;27814;53.452;-6.180;2022-10-31T01:08:29;14.60;99.90
41816;DHT22;27814;53.452;-6.180;2022-10-31T01:11:03;14.60;99.90
41816;DHT22;27814;53.452;-6.180;2022-10-31T01:13:32;14.60;99.90
41816;DHT22;27814;53.452;-6.180;2022-10-31T01:16:01;14.60;99.90
41816;DHT22;27814;53.452;-6.180;2022-10-31T01:18:31;14.60;99.90
41816;DHT22;27814;53.452;-6.180;2022-10-31T01:21:01;14.60;99.90
41816;DHT22;27814;53.452;-6.180;2022-10-31T01:23:30;14.60;99.90
41816;DHT22;27814;53.452;-6.180;2022-10-31T01:26:00;14.50;99.90
41816;DHT22;27814;53.452;-6.180;2022-10-31T01:28:29;14.60;99.90
41816;DHT22;27814;53.452;-6.180;2022-10-31T01:31:00;14.60;99.90
41816;DHT22;27814;53.452;-6.180;2022-10-31T01:33:31;14.50;99.90
41816;DHT22;27814;53.452;-6.180;2022-10-31T01:35:59;14.60;99.90
41816;DHT22;27814;53.452;-6.180;2022-10-31T01:38:27;14.60;99.90
41816;DHT22;27814;53.452;-6.180;2022-10-31T01:40:56;14.50;99.90
41816;DHT22;27814;53.452;-6.180;2022-10-31T01:43:30;14.50;99.90
41816;DHT22;27814;53.452;-6.180;2022-10-31T01:46:09;14.60;99.90
41816;DHT22;27814;53.452;-6.180;2022-10-31T01:48:40;14.60;99.90
41816;DHT22;27814;53.452;-6.180;2022-10-31T01:51:11;14.60;99.90
41816;DHT22;27814;53.452;-6.180;2022-10-31T01:53:41;14.70;99.90
41816;DHT22;27814;53.452;-6.180;2022-10-31T01:56:10;14.70;99.90
41816;DHT22;27814;53.452;-6.180;2022-10-31T01:58:39;14.70;99.90
41816;DHT22;27814;53.452;-6.180;2022-10-31T02:01:08;14.70;99.90
41816;DHT22;27814;53.452;-6.180;2022-10-31T02:03:36;14.70;99.90
41816;DHT22;27814;53.452;-6.180;2022-10-31T02:06:10;14.70;99.90
41816;DHT22;27814;53.452;-6.180;2022-10-31T02:08:42;14.70;99.90
41816;DHT22;27814;53.452;-6.180;2022-10-31T02:11:11;14.70;99.90
41816;DHT22;27814;53.452;-6.180;2022-10-31T02:13:40;14.60;99.90
41816;DHT22;27814;53.452;-6.180;2022-10-31T02:16:09;14.70;99.90
41816;DHT22;27814;53.452;-6.180;2022-10-31T02:18:38;14.60;99.90
41816;DHT22;27814;53.452;-6.180;2022-10-31T02:21:13;14.70;99.90
41816;DHT22;27814;53.452;-6.180;2022-10-31T02:27:01;14.60;99.90
41816;DHT22;27814;53.452;-6.180;2022-10-31T02:29:49;14.60;99.90
41816;DHT22;27814;53.452;-6.180;2022-10-31T02:32:27;14.60;99.90
41816;DHT22;27814;53.452;-6.180;2022-10-31T02:34:59;14.50;99.90
41816;DHT22;27814;53.452;-6.180;2022-10-31T02:37:36;14.50;99.90
41816;DHT22;27814;53.452;-6.180;2022-10-31T02:40:13;14.50;99.90
41816;DHT22;27814;53.452;-6.180;2022-10-31T02:42:49;14.50;99.90
41816;DHT22;27814;53.452;-6.180;2022-10-31T02:45:24;14.50;99.90
41816;DHT22;27814;53.452;-6.180;2022-10-31T02:47:59;14.50;99.90
41816;DHT22;27814;53.452;-6.180;2022-10-31T02:50:31;14.40;99.90
41816;DHT22;27814;53.452;-6.180;2022-10-31T02:53:01;14.50;99.90
41816;DHT22;27814;53.452;-6.180;2022-10-31T02:55:54;14.50;99.90
41816;DHT22;27814;53.452;-6.180;2022-10-31T02:58:28;14.40;99.90
41816;DHT22;27814;53.452;-6.180;2022-10-31T03:01:18;14.40;99.90
41816;DHT22;27814;53.452;-6.180;2022-10-31T03:04:13;14.40;99.90
41816;DHT22;27814;53.452;-6.180;2022-10-31T03:06:48;14.40;99.90
41816;DHT22;27814;53.452;-6.180;2022-10-31T03:09:23;14.40;99.90
41816;DHT22;27814;53.452;-6.180;2022-10-31T03:11:58;14.40;99.90
41816;DHT22;27814;53.452;-6.180;2022-10-31T03:14:35;14.40;99.90
41816;DHT22;27814;53.452;-6.180;2022-10-31T03:17:08;14.40;99.90
41816;DHT22;27814;53.452;-6.180;2022-10-31T03:19:43;14.40;99.90
41816;DHT22;27814;53.452;-6.180;2022-10-31T03:22:17;14.40;99.90
41816;DHT22;27814;53.452;-6.180;2022-10-31T03:24:48;14.50;99.90
41816;DHT22;27814;53.452;-6.180;2022-10-31T03:27:20;14.50;99.90
41816;DHT22;27814;53.452;-6.180;2022-10-31T03:29:51;14.50;99.90
41816;DHT22;27814;53.452;-6.180;2022-10-31T03:32:23;14.50;99.90
41816;DHT22;27814;53.452;-6.180;2022-10-31T03:34:55;14.50;99.90
41816;DHT22;27814;53.452;-6.180;2022-10-31T03:37:27;14.50;99.90
41816;DHT22;27814;53.452;-6.180;2022-10-31T03:39:59;14.60;99.90
41816;DHT22;27814;53.452;-6.180;2022-10-31T03:42:30;14.60;99.90
41816;DHT22;27814;53.452;-6.180;2022-10-31T03:45:01;14.60;99.90
41816;DHT22;27814;53.452;-6.180;2022-10-31T03:47:30;14.60;99.90
41816;DHT22;27814;53.452;-6.180;2022-10-31T03:50:01;14.60;99.90
41816;DHT22;27814;53.452;-6.180;2022-10-31T03:52:36;14.70;99.90
41816;DHT22;27814;53.452;-6.180;2022-10-31T03:55:10;14.70;99.90
41816;DHT22;27814;53.452;-6.180;2022-10-31T03:57:45;14.70;99.90
41816;DHT22;27814;53.452;-6.180;2022-10-31T04:00:15;14.70;99.90
41816;DHT22;27814;53.452;-6.180;2022-10-31T04:02:49;14.70;99.90
41816;DHT22;27814;53.452;-6.180;2022-10-31T04:05:21;14.70;99.90
41816;DHT22;27814;53.452;-6.180;2022-10-31T04:07:52;14.70;99.90
41816;DHT22;27814;53.452;-6.180;2022-10-31T04:10:22;14.70;99.90
41816;DHT22;27814;53.452;-6.180;2022-10-31T04:13:04;14.70;99.90
41816;DHT22;27814;53.452;-6.180;2022-10-31T04:15:34;14.70;99.90
41816;DHT22;27814;53.452;-6.180;2022-10-31T04:18:04;14.70;99.90
41816;DHT22;27814;53.452;-6.180;2022-10-31T04:20:36;14.70;99.90
41816;DHT22;27814;53.452;-6.180;2022-10-31T04:23:11;14.70;99.90
41816;DHT22;27814;53.452;-6.180;2022-10-31T04:25:42;14.70;99.90
41816;DHT22;27814;53.452;-6.180;2022-10-31T04:28:10;14.70;99.90
41816;DHT22;27814;53.452;-6.180;2022-10-31T04:30:38;14.70;99.90
41816;DHT22;27814;53.452;-6.180;2022-10-31T04:33:07;14.70;99.90
41816;DHT22;27814;53.452;-6.180;2022-10-31T04:35:37;14.70;99.90
41816;DHT22;27814;53.452;-6.180;2022-10-31T04:38:05;14.70;99.90
41816;DHT22;27814;53.452;-6.180;2022-10-31T04:40:33;14.70;99.90
41816;DHT22;27814;53.452;-6.180;2022-10-31T04:43:02;14.70;99.90
41816;DHT22;27814;53.452;-6.180;2022-10-31T04:45:30;14.70;99.90
41816;DHT22;27814;53.452;-6.180;2022-10-31T04:47:59;14.80;99.90
41816;DHT22;27814;53.452;-6.180;2022-10-31T04:50:28;14.80;99.90
41816;DHT22;27814;53.452;-6.180;2022-10-31T04:52:57;14.80;99.90
41816;DHT22;27814;53.452;-6.180;2022-10-31T04:55:26;14.80;99.90
41816;DHT22;27814;53.452;-6.180;2022-10-31T04:57:54;14.80;99.90
41816;DHT22;27814;53.452;-6.180;2022-10-31T05:00:23;14.80;99.90
41816;DHT22;27814;53.452;-6.180;2022-10-31T05:02:53;14.80;99.90
41816;DHT22;27814;53.452;-6.180;2022-10-31T05:05:24;14.80;99.90
41816;DHT22;27814;53.452;-6.180;2022-10-31T05:07:53;14.80;99.90
41816;DHT22;27814;53.452;-6.180;2022-10-31T05:10:24;14.80;99.90
41816;DHT22;27814;53.452;-6.180;2022-10-31T05:12:55;14.80;99.90
41816;DHT22;27814;53.452;-6.180;2022-10-31T05:15:26;14.70;99.90
41816;DHT22;27814;53.452;-6.180;2022-10-31T05:17:55;14.70;99.90
41816;DHT22;27814;53.452;-6.180;2022-10-31T05:20:26;14.70;99.90
41816;DHT22;27814;53.452;-6.180;2022-10-31T05:22:56;14.70;99.90
41816;DHT22;27814;53.452;-6.180;2022-10-31T05:25:27;14.70;99.90
41816;DHT22;27814;53.452;-6.180;2022-10-31T05:27:56;14.70;99.90
41816;DHT22;27814;53.452;-6.180;2022-10-31T05:30:27;14.70;99.90
41816;DHT22;27814;53.452;-6.180;2022-10-31T05:32:56;14.80;99.90
41816;DHT22;27814;53.452;-6.180;2022-10-31T05:35:26;14.80;99.90
41816;DHT22;27814;53.452;-6.180;2022-10-31T05:37:55;14.80;99.90
41816;DHT22;27814;53.452;-6.180;2022-10-31T05:40:26;14.80;99.90
41816;DHT22;27814;53.452;-6.180;2022-10-31T05:42:56;14.80;99.90
41816;DHT22;27814;53.452;-6.180;2022-10-31T05:45:26;14.80;99.90
41816;DHT22;27814;53.452;-6.180;2022-10-31T05:47:56;14.80;99.90
41816;DHT22;27814;53.452;-6.180;2022-10-31T05:50:27;14.80;99.90
41816;DHT22;27814;53.452;-6.180;2022-10-31T05:52:57;14.80;99.90
41816;DHT22;27814;53.452;-6.180;2022-10-31T05:55:27;14.90;99.90
41816;DHT22;27814;53.452;-6.180;2022-10-31T05:57:55;14.90;99.90
41816;DHT22;27814;53.452;-6.180;2022-10-31T06:00:26;14.90;99.90
41816;DHT22;27814;53.452;-6.180;2022-10-31T06:02:58;14.90;99.90
41816;DHT22;27814;53.452;-6.180;2022-10-31T06:05:27;15.00;99.90
41816;DHT22;27814;53.452;-6.180;2022-10-31T06:07:55;15.00;99.90
41816;DHT22;27814;53.452;-6.180;2022-10-31T06:10:25;15.00;99.90
41816;DHT22;27814;53.452;-6.180;2022-10-31T06:12:55;15.00;99.90
41816;DHT22;27814;53.452;-6.180;2022-10-31T06:15:23;15.00;99.90
41816;DHT22;27814;53.452;-6.180;2022-10-31T06:18:02;15.00;99.90
41816;DHT22;27814;53.452;-6.180;2022-10-31T06:20:31;15.00;99.90
41816;DHT22;27814;53.452;-6.180;2022-10-31T06:22:59;15.00;99.90
41816;DHT22;27814;53.452;-6.180;2022-10-31T06:25:29;15.00;99.90
41816;DHT22;27814;53.452;-6.180;2022-10-31T06:27:58;15.00;99.90
41816;DHT22;27814;53.452;-6.180;2022-10-31T06:30:27;15.00;99.90
41816;DHT22;27814;53.452;-6.180;2022-10-31T06:33:00;15.00;99.90
41816;DHT22;27814;53.452;-6.180;2022-10-31T06:35:29;15.00;99.90
41816;DHT22;27814;53.452;-6.180;2022-10-31T06:37:57;15.00;99.90
41816;DHT22;27814;53.452;-6.180;2022-10-31T06:40:26;15.00;99.90
41816;DHT22;27814;53.452;-6.180;2022-10-31T06:43:00;15.10;99.90
41816;DHT22;27814;53.452;-6.180;2022-10-31T06:45:28;15.00;99.90
41816;DHT22;27814;53.452;-6.180;2022-10-31T06:47:57;15.00;99.90
41816;DHT22;27814;53.452;-6.180;2022-10-31T06:50:43;15.00;99.90
41816;DHT22;27814;53.452;-6.180;2022-10-31T06:53:12;15.00;99.90
41816;DHT22;27814;53.452;-6.180;2022-10-31T06:55:41;15.00;99.90
41816;DHT22;27814;53.452;-6.180;2022-10-31T06:58:11;15.10;99.90
41816;DHT22;27814;53.452;-6.180;2022-10-31T07:00:40;15.10;99.90
41816;DHT22;27814;53.452;-6.180;2022-10-31T07:03:10;15.10;99.90
41816;DHT22;27814;53.452;-6.180;2022-10-31T07:05:39;15.10;99.90
41816;DHT22;27814;53.452;-6.180;2022-10-31T07:08:09;15.10;99.90
41816;DHT22;27814;53.452;-6.180;2022-10-31T07:10:39;15.10;99.90
41816;DHT22;27814;53.452;-6.180;2022-10-31T07:13:12;15.20;99.90
41816;DHT22;27814;53.452;-6.180;2022-10-31T07:15:42;15.10;99.90
41816;DHT22;27814;53.452;-6.180;2022-10-31T07:18:12;15.10;99.90
41816;DHT22;27814;53.452;-6.180;2022-10-31T07:20:41;15.20;99.90
41816;DHT22;27814;53.452;-6.180;2022-10-31T07:23:10;15.20;99.90
41816;DHT22;27814;53.452;-6.180;2022-10-31T07:25:39;15.20;99.90
41816;DHT22;27814;53.452;-6.180;2022-10-31T07:28:08;15.20;99.90
41816;DHT22;27814;53.452;-6.180;2022-10-31T07:30:38;15.30;99.90
41816;DHT22;27814;53.452;-6.180;2022-10-31T07:33:06;15.30;99.90
41816;DHT22;27814;53.452;-6.180;2022-10-31T07:35:35;15.30;99.90
41816;DHT22;27814;53.452;-6.180;2022-10-31T07:38:07;15.40;99.90
41816;DHT22;27814;53.452;-6.180;2022-10-31T07:40:36;15.40;99.90
41816;DHT22;27814;53.452;-6.180;2022-10-31T07:43:04;15.40;99.90
41816;DHT22;27814;53.452;-6.180;2022-10-31T07:45:41;15.40;99.90
41816;DHT22;27814;53.452;-6.180;2022-10-31T07:48:09;15.40;99.90
41816;DHT22;27814;53.452;-6.180;2022-10-31T07:50:38;15.40;99.90
41816;DHT22;27814;53.452;-6.180;2022-10-31T07:53:08;15.50;99.90
41816;DHT22;27814;53.452;-6.180;2022-10-31T07:55:37;15.50;99.90
41816;DHT22;27814;53.452;-6.180;2022-10-31T07:58:07;15.40;99.90
41816;DHT22;27814;53.452;-6.180;2022-10-31T08:00:37;15.50;99.90
41816;DHT22;27814;53.452;-6.180;2022-10-31T08:03:08;15.50;99.90
41816;DHT22;27814;53.452;-6.180;2022-10-31T08:05:37;15.50;99.90
41816;DHT22;27814;53.452;-6.180;2022-10-31T08:08:07;15.50;99.90
41816;DHT22;27814;53.452;-6.180;2022-10-31T08:10:36;15.50;99.90
41816;DHT22;27814;53.452;-6.180;2022-10-31T08:13:06;15.50;99.90
41816;DHT22;27814;53.452;-6.180;2022-10-31T08:15:35;15.50;99.90
41816;DHT22;27814;53.452;-6.180;2022-10-31T08:18:11;15.60;99.90
41816;DHT22;27814;53.452;-6.180;2022-10-31T08:20:40;15.60;99.90
41816;DHT22;27814;53.452;-6.180;2022-10-31T08:23:10;15.60;99.90
41816;DHT22;27814;53.452;-6.180;2022-10-31T08:25:38;15.60;99.90
41816;DHT22;27814;53.452;-6.180;2022-10-31T08:28:08;15.60;99.90
41816;DHT22;27814;53.452;-6.180;2022-10-31T08:30:37;15.60;99.90
41816;DHT22;27814;53.452;-6.180;2022-10-31T08:33:11;15.60;99.90
41816;DHT22;27814;53.452;-6.180;2022-10-31T08:35:41;15.70;99.90
41816;DHT22;27814;53.452;-6.180;2022-10-31T08:38:12;15.70;99.90
41816;DHT22;27814;53.452;-6.180;2022-10-31T08:40:41;15.70;99.90
41816;DHT22;27814;53.452;-6.180;2022-10-31T08:43:12;15.80;99.90
41816;DHT22;27814;53.452;-6.180;2022-10-31T08:45:41;15.80;99.90
41816;DHT22;27814;53.452;-6.180;2022-10-31T08:48:12;15.80;99.90
41816;DHT22;27814;53.452;-6.180;2022-10-31T08:50:42;15.80;99.90
41816;DHT22;27814;53.452;-6.180;2022-10-31T08:53:13;15.90;99.90
41816;DHT22;27814;53.452;-6.180;2022-10-31T08:55:43;15.90;99.90
41816;DHT22;27814;53.452;-6.180;2022-10-31T08:58:13;15.90;99.90
41816;DHT22;27814;53.452;-6.180;2022-10-31T09:00:43;16.00;99.90
41816;DHT22;27814;53.452;-6.180;2022-10-31T09:03:14;16.00;99.90
41816;DHT22;27814;53.452;-6.180;2022-10-31T09:05:43;16.00;99.90
41816;DHT22;27814;53.452;-6.180;2022-10-31T09:08:13;16.00;99.90
41816;DHT22;27814;53.452;-6.180;2022-10-31T09:10:43;16.00;99.90
41816;DHT22;27814;53.452;-6.180;2022-10-31T09:13:13;16.10;99.90
41816;DHT22;27814;53.452;-6.180;2022-10-31T09:15:43;16.10;99.90
41816;DHT22;27814;53.452;-6.180;2022-10-31T09:18:15;16.10;99.90
41816;DHT22;27814;53.452;-6.180;2022-10-31T09:20:44;16.10;99.90
41816;DHT22;27814;53.452;-6.180;2022-10-31T09:23:14;16.20;99.90
41816;DHT22;27814;53.452;-6.180;2022-10-31T09:25:43;16.20;99.90
41816;DHT22;27814;53.452;-6.180;2022-10-31T09:28:18;16.20;99.90
41816;DHT22;27814;53.452;-6.180;2022-10-31T09:30:48;16.30;99.90
41816;DHT22;27814;53.452;-6.180;2022-10-31T09:33:18;16.20;99.90
41816;DHT22;27814;53.452;-6.180;2022-10-31T09:35:47;16.30;99.90
41816;DHT22;27814;53.452;-6.180;2022-10-31T09:38:17;16.30;99.90
41816;DHT22;27814;53.452;-6.180;2022-10-31T09:40:49;16.20;99.90
41816;DHT22;27814;53.452;-6.180;2022-10-31T09:43:25;16.20;99.90
41816;DHT22;27814;53.452;-6.180;2022-10-31T09:46:04;16.20;99.90
41816;DHT22;27814;53.452;-6.180;2022-10-31T09:48:44;16.20;99.90
41816;DHT22;27814;53.452;-6.180;2022-10-31T09:51:18;16.20;99.90
41816;DHT22;27814;53.452;-6.180;2022-10-31T09:53:51;16.20;99.90
41816;DHT22;27814;53.452;-6.180;2022-10-31T09:56:23;16.20;99.90
41816;DHT22;27814;53.452;-6.180;2022-10-31T09:58:55;16.20;99.90
41816;DHT22;27814;53.452;-6.180;2022-10-31T10:01:38;16.20;99.90
41816;DHT22;27814;53.452;-6.180;2022-10-31T10:04:27;16.20;99.90
41816;DHT22;27814;53.452;-6.180;2022-10-31T10:06:56;16.20;99.90
41816;DHT22;27814;53.452;-6.180;2022-10-31T10:09:27;16.30;99.90
41816;DHT22;27814;53.452;-6.180;2022-10-31T10:12:05;16.30;99.90
41816;DHT22;27814;53.452;-6.180;2022-10-31T10:14:59;16.30;99.90
41816;DHT22;27814;53.452;-6.180;2022-10-31T10:17:37;16.40;99.90
41816;DHT22;27814;53.452;-6.180;2022-10-31T10:20:18;16.40;99.90
41816;DHT22;27814;53.452;-6.180;2022-10-31T10:22:55;16.40;99.90
41816;DHT22;27814;53.452;-6.180;2022-10-31T10:25:34;16.50;99.90
41816;DHT22;27814;53.452;-6.180;2022-10-31T10:28:15;16.60;99.90
41816;DHT22;27814;53.452;-6.180;2022-10-31T10:30:48;16.60;99.90
41816;DHT22;27814;53.452;-6.180;2022-10-31T10:33:20;16.60;99.90
41816;DHT22;27814;53.452;-6.180;2022-10-31T10:35:52;16.60;99.90
41816;DHT22;27814;53.452;-6.180;2022-10-31T10:38:26;16.70;99.90
41816;DHT22;27814;53.452;-6.180;2022-10-31T10:40:55;16.70;99.90
41816;DHT22;27814;53.452;-6.180;2022-10-31T10:43:31;16.80;99.90
41816;DHT22;27814;53.452;-6.180;2022-10-31T10:49:16;16.90;99.90
41816;DHT22;27814;53.452;-6.180;2022-10-31T10:51:51;16.90;99.90
41816;DHT22;27814;53.452;-6.180;2022-10-31T10:54:57;16.90;99.90
41816;DHT22;27814;53.452;-6.180;2022-10-31T10:57:42;17.00;99.90
41816;DHT22;27814;53.452;-6.180;2022-10-31T11:00:18;17.10;99.90
41816;DHT22;27814;53.452;-6.180;2022-10-31T11:02:47;17.20;99.90
41816;DHT22;27814;53.452;-6.180;2022-10-31T11:05:23;17.20;99.90
41816;DHT22;27814;53.452;-6.180;2022-10-31T11:07:53;17.30;99.90
41816;DHT22;27814;53.452;-6.180;2022-10-31T11:10:21;17.30;99.90
41816;DHT22;27814;53.452;-6.180;2022-10-31T11:13:20;17.30;99.90
41816;DHT22;27814;53.452;-6.180;2022-10-31T11:15:53;17.40;99.90
41816;DHT22;27814;53.452;-6.180;2022-10-31T11:18:25;17.40;99.90
41816;DHT22;27814;53.452;-6.180;2022-10-31T11:20:56;17.50;99.90
41816;DHT22;27814;53.452;-6.180;2022-10-31T11:23:27;17.50;99.90
41816;DHT22;27814;53.452;-6.180;2022-10-31T11:25:58;17.60;99.90
41816;DHT22;27814;53.452;-6.180;2022-10-31T11:28:28;17.50;99.90
41816;DHT22;27814;53.452;-6.180;2022-10-31T11:30:59;17.50;99.90
41816;DHT22;27814;53.452;-6.180;2022-10-31T11:33:31;17.50;99.90
41816;DHT22;27814;53.452;-6.180;2022-10-31T11:36:01;17.50;99.90
41816;DHT22;27814;53.452;-6.180;2022-10-31T11:38:39;17.60;99.90
41816;DHT22;27814;53.452;-6.180;2022-10-31T11:41:12;17.60;99.90
41816;DHT22;27814;53.452;-6.180;2022-10-31T11:43:48;17.60;99.90
41816;DHT22;27814;53.452;-6.180;2022-10-31T11:46:21;17.60;99.90
41816;DHT22;27814;53.452;-6.180;2022-10-31T11:48:53;17.80;99.90
41816;DHT22;27814;53.452;-6.180;2022-10-31T11:51:24;17.90;99.90
41816;DHT22;27814;53.452;-6.180;2022-10-31T11:53:57;17.90;99.90
41816;DHT22;27814;53.452;-6.180;2022-10-31T11:56:38;17.90;99.90
41816;DHT22;27814;53.452;-6.180;2022-10-31T11:59:17;17.80;99.90
41816;DHT22;27814;53.452;-6.180;2022-10-31T12:01:48;17.80;99.90
41816;DHT22;27814;53.452;-6.180;2022-10-31T12:04:17;17.80;99.90
41816;DHT22;27814;53.452;-6.180;2022-10-31T12:06:46;17.70;99.90
41816;DHT22;27814;53.452;-6.180;2022-10-31T12:09:23;17.60;99.90
41816;DHT22;27814;53.452;-6.180;2022-10-31T12:12:03;17.60;99.90
41816;DHT22;27814;53.452;-6.180;2022-10-31T12:14:40;17.50;99.90
41816;DHT22;27814;53.452;-6.180;2022-10-31T12:17:13;17.50;99.90
41816;DHT22;27814;53.452;-6.180;2022-10-31T12:19:45;17.40;99.90
41816;DHT22;27814;53.452;-6.180;2022-10-31T12:22:27;17.40;99.90
41816;DHT22;27814;53.452;-6.180;2022-10-31T12:25:10;17.40;99.90
41816;DHT22;27814;53.452;-6.180;2022-10-31T12:27:54;17.50;99.90
41816;DHT22;27814;53.452;-6.180;2022-10-31T12:30:27;17.50;99.90
41816;DHT22;27814;53.452;-6.180;2022-10-31T12:33:18;17.60;99.90
41816;DHT22;27814;53.452;-6.180;2022-10-31T12:35:57;17.70;99.90
41816;DHT22;27814;53.452;-6.180;2022-10-31T12:38:37;17.70;99.90
41816;DHT22;27814;53.452;-6.180;2022-10-31T12:41:22;17.70;99.90
41816;DHT22;27814;53.452;-6.180;2022-10-31T12:43:58;17.80;99.90
41816;DHT22;27814;53.452;-6.180;2022-10-31T12:46:40;17.70;99.90
41816;DHT22;27814;53.452;-6.180;2022-10-31T12:49:38;17.80;99.90
41816;DHT22;27814;53.452;-6.180;2022-10-31T12:55:20;17.80;99.90
41816;DHT22;27814;53.452;-6.180;2022-10-31T12:58:01;17.70;99.90
41816;DHT22;27814;53.452;-6.180;2022-10-31T13:00:32;17.70;99.90
41816;DHT22;27814;53.452;-6.180;2022-10-31T13:03:14;17.70;99.90
41816;DHT22;27814;53.452;-6.180;2022-10-31T13:05:49;17.70;99.90
41816;DHT22;27814;53.452;-6.180;2022-10-31T13:08:23;17.60;99.90
41816;DHT22;27814;53.452;-6.180;2022-10-31T13:10:59;17.60;99.90
41816;DHT22;27814;53.452;-6.180;2022-10-31T13:13:36;17.50;99.90
41816;DHT22;27814;53.452;-6.180;2022-10-31T13:16:11;17.50;99.90
41816;DHT22;27814;53.452;-6.180;2022-10-31T13:18:44;17.50;99.90
41816;DHT22;27814;53.452;-6.180;2022-10-31T13:21:18;17.40;99.90
41816;DHT22;27814;53.452;-6.180;2022-10-31T13:23:49;17.30;99.90
41816;DHT22;27814;53.452;-6.180;2022-10-31T13:26:27;17.20;99.90
41816;DHT22;27814;53.452;-6.180;2022-10-31T13:29:06;17.20;99.90
41816;DHT22;27814;53.452;-6.180;2022-10-31T13:31:40;17.10;99.90
41816;DHT22;27814;53.452;-6.180;2022-10-31T13:34:18;17.10;99.90
41816;DHT22;27814;53.452;-6.180;2022-10-31T13:36:52;17.00;99.90
41816;DHT22;27814;53.452;-6.180;2022-10-31T13:39:30;17.00;99.90
41816;DHT22;27814;53.452;-6.180;2022-10-31T13:42:04;16.90;99.90
41816;DHT22;27814;53.452;-6.180;2022-10-31T13:44:35;16.90;99.90
41816;DHT22;27814;53.452;-6.180;2022-10-31T13:47:22;16.90;99.90
41816;DHT22;27814;53.452;-6.180;2022-10-31T13:49:51;16.90;99.90
41816;DHT22;27814;53.452;-6.180;2022-10-31T13:52:24;16.90;99.90
41816;DHT22;27814;53.452;-6.180;2022-10-31T13:54:53;16.90;99.90
41816;DHT22;27814;53.452;-6.180;2022-10-31T13:57:31;16.90;99.90
41816;DHT22;27814;53.452;-6.180;2022-10-31T14:00:05;16.90;99.90
41816;DHT22;27814;53.452;-6.180;2022-10-31T14:02:35;16.90;99.90
41816;DHT22;27814;53.452;-6.180;2022-10-31T14:05:06;16.90;99.90
41816;DHT22;27814;53.452;-6.180;2022-10-31T14:07:47;17.00;99.90
41816;DHT22;27814;53.452;-6.180;2022-10-31T14:10:22;17.00;99.90
41816;DHT22;27814;53.452;-6.180;2022-10-31T14:12:53;17.00;99.90
41816;DHT22;27814;53.452;-6.180;2022-10-31T14:15:31;16.90;99.90
41816;DHT22;27814;53.452;-6.180;2022-10-31T14:18:02;17.00;99.90
41816;DHT22;27814;53.452;-6.180;2022-10-31T14:20:37;17.00;99.90
41816;DHT22;27814;53.452;-6.180;2022-10-31T14:26:07;17.10;99.90
41816;DHT22;27814;53.452;-6.180;2022-10-31T14:28:45;17.10;99.90
41816;DHT22;27814;53.452;-6.180;2022-10-31T14:31:32;17.10;99.90
41816;DHT22;27814;53.452;-6.180;2022-10-31T14:34:20;17.10;99.90
41816;DHT22;27814;53.452;-6.180;2022-10-31T14:43:12;17.00;99.90
41816;DHT22;27814;53.452;-6.180;2022-10-31T14:45:53;17.00;99.90
41816;DHT22;27814;53.452;-6.180;2022-10-31T14:48:47;17.00;99.90
41816;DHT22;27814;53.452;-6.180;2022-10-31T14:51:20;17.10;99.90
41816;DHT22;27814;53.452;-6.180;2022-10-31T14:53:51;17.10;99.90
41816;DHT22;27814;53.452;-6.180;2022-10-31T14:56:23;17.00;99.90
41816;DHT22;27814;53.452;-6.180;2022-10-31T14:58:53;17.00;99.90
41816;DHT22;27814;53.452;-6.180;2022-10-31T15:01:25;17.00;99.90
41816;DHT22;27814;53.452;-6.180;2022-10-31T15:04:00;17.00;99.90
41816;DHT22;27814;53.452;-6.180;2022-10-31T15:06:54;16.90;99.90
41816;DHT22;27814;53.452;-6.180;2022-10-31T15:09:28;16.90;99.90
41816;DHT22;27814;53.452;-6.180;2022-10-31T15:11:58;16.90;99.90
41816;DHT22;27814;53.452;-6.180;2022-10-31T15:14:29;16.80;99.90
41816;DHT22;27814;53.452;-6.180;2022-10-31T15:16:58;16.80;99.90
41816;DHT22;27814;53.452;-6.180;2022-10-31T15:19:32;16.80;99.90
41816;DHT22;27814;53.452;-6.180;2022-10-31T15:22:03;16.80;99.90
41816;DHT22;27814;53.452;-6.180;2022-10-31T15:24:34;16.70;99.90
41816;DHT22;27814;53.452;-6.180;2022-10-31T15:27:03;16.70;99.90
41816;DHT22;27814;53.452;-6.180;2022-10-31T15:29:32;16.70;99.90
41816;DHT22;27814;53.452;-6.180;2022-10-31T15:32:15;16.70;99.90
41816;DHT22;27814;53.452;-6.180;2022-10-31T15:34:45;16.70;99.90
41816;DHT22;27814;53.452;-6.180;2022-10-31T15:37:15;16.70;99.90
41816;DHT22;27814;53.452;-6.180;2022-10-31T15:39:45;16.70;99.90
41816;DHT22;27814;53.452;-6.180;2022-10-31T15:42:19;16.70;99.90
41816;DHT22;27814;53.452;-6.180;2022-10-31T15:44:51;16.70;99.90
41816;DHT22;27814;53.452;-6.180;2022-10-31T15:47:22;16.60;99.90
41816;DHT22;27814;53.452;-6.180;2022-10-31T15:49:54;16.60;99.90
41816;DHT22;27814;53.452;-6.180;2022-10-31T15:52:31;16.60;99.90
41816;DHT22;27814;53.452;-6.180;2022-10-31T15:55:04;16.50;99.90
41816;DHT22;27814;53.452;-6.180;2022-10-31T15:57:33;16.50;99.90
41816;DHT22;27814;53.452;-6.180;2022-10-31T16:00:03;16.40;99.90
41816;DHT22;27814;53.452;-6.180;2022-10-31T16:02:32;16.40;99.90
41816;DHT22;27814;53.452;-6.180;2022-10-31T16:05:14;16.30;99.90
41816;DHT22;27814;53.452;-6.180;2022-10-31T16:07:48;16.30;99.90